createdAt,value
2018-07-02T00:00:07.702Z,16.40
2018-07-02T00:02:33.643Z,16.30
2018-07-02T00:04:59.569Z,16.30
2018-07-02T00:07:25.516Z,16.30
2018-07-02T00:09:51.448Z,16.20
2018-07-02T00:12:18.134Z,16.20
2018-07-02T00:14:44.058Z,16.10
2018-07-02T00:17:09.989Z,16.10
2018-07-02T00:19:35.932Z,16.10
2018-07-02T00:22:01.851Z,16.10
2018-07-02T00:24:27.790Z,16.00
2018-07-02T00:26:54.465Z,16.00
2018-07-02T00:29:20.419Z,15.90
2018-07-02T00:31:46.387Z,15.90
2018-07-02T00:34:12.290Z,15.90
2018-07-02T00:36:38.977Z,15.80
2018-07-02T00:39:04.921Z,15.80
2018-07-02T00:41:30.861Z,15.80
2018-07-02T00:43:56.782Z,15.80
2018-07-02T00:46:22.732Z,15.80
2018-07-02T00:48:49.405Z,15.60
2018-07-02T00:51:15.330Z,15.60
2018-07-02T00:53:41.282Z,15.60
2018-07-02T00:56:07.225Z,15.60
2018-07-02T00:58:33.921Z,15.50
2018-07-02T01:00:59.859Z,15.50
2018-07-02T01:03:25.812Z,15.50
2018-07-02T01:05:52.474Z,15.40
2018-07-02T01:08:18.417Z,15.40
2018-07-02T01:10:44.347Z,15.40
2018-07-02T01:13:10.270Z,15.40
2018-07-02T01:15:36.228Z,15.30
2018-07-02T01:18:02.150Z,15.20
2018-07-02T01:20:28.096Z,15.20
2018-07-02T01:22:54.027Z,15.20
2018-07-02T01:25:19.975Z,15.20
2018-07-02T01:27:45.915Z,15.20
2018-07-02T01:30:11.869Z,15.10
2018-07-02T01:32:38.534Z,15.00
2018-07-02T01:35:04.454Z,15.00
2018-07-02T01:37:30.398Z,14.90
2018-07-02T01:39:56.320Z,14.80
2018-07-02T01:42:22.259Z,14.80
2018-07-02T01:44:48.183Z,14.80
2018-07-02T01:47:14.129Z,14.80
2018-07-02T01:49:40.059Z,14.70
2018-07-02T01:52:06.066Z,14.60
2018-07-02T01:54:32.017Z,14.60
2018-07-02T01:56:58.679Z,14.50
2018-07-02T01:59:24.626Z,14.50
2018-07-02T02:01:50.554Z,14.50
2018-07-02T02:04:16.480Z,14.50
2018-07-02T02:06:42.417Z,14.40
2018-07-02T02:09:08.339Z,14.40
2018-07-02T02:11:34.270Z,14.30
2018-07-02T02:14:00.935Z,14.10
2018-07-02T02:16:26.874Z,14.10
2018-07-02T02:18:52.803Z,14.00
2018-07-02T02:21:18.767Z,13.70
2018-07-02T02:23:44.677Z,13.70
2018-07-02T02:26:10.590Z,13.60
2018-07-02T02:28:36.538Z,13.40
2018-07-02T02:31:02.450Z,13.30
2018-07-02T02:33:28.394Z,13.30
2018-07-02T02:35:55.058Z,13.10
2018-07-02T02:38:21.064Z,13.10
2018-07-02T02:40:46.939Z,13.10
2018-07-02T02:43:12.890Z,13.00
2018-07-02T02:45:39.560Z,12.90
2018-07-02T02:48:05.499Z,12.90
2018-07-02T02:50:31.424Z,12.80
2018-07-02T02:52:57.350Z,12.80
2018-07-02T02:55:23.287Z,12.80
2018-07-02T02:57:49.218Z,12.70
2018-07-02T03:00:15.183Z,12.80
2018-07-02T03:02:41.118Z,12.80
2018-07-02T03:05:07.069Z,12.80
2018-07-02T03:07:32.987Z,12.70
2018-07-02T03:09:58.939Z,12.70
2018-07-02T03:12:24.881Z,12.70
2018-07-02T03:14:51.547Z,12.70
2018-07-02T03:17:17.496Z,12.70
2018-07-02T03:19:43.410Z,12.70
2018-07-02T03:22:09.350Z,12.70
2018-07-02T03:24:35.284Z,12.60
2018-07-02T03:27:01.212Z,12.60
2018-07-02T03:29:27.899Z,12.60
2018-07-02T03:31:53.839Z,12.50
2018-07-02T03:34:19.780Z,12.60
2018-07-02T03:36:45.740Z,12.60
2018-07-02T03:39:12.404Z,12.60
2018-07-02T03:41:38.334Z,12.50
2018-07-02T03:44:04.284Z,12.50
2018-07-02T03:46:30.217Z,12.60
2018-07-02T03:48:56.168Z,12.60
2018-07-02T03:51:22.089Z,12.70
2018-07-02T03:53:48.787Z,12.80
2018-07-02T03:56:14.719Z,12.70
2018-07-02T03:58:40.645Z,12.80
2018-07-02T04:01:07.351Z,13.00
2018-07-02T04:03:33.274Z,13.00
2018-07-02T04:05:59.217Z,13.00
2018-07-02T04:08:25.143Z,13.00
2018-07-02T04:10:51.086Z,13.10
2018-07-02T04:13:17.752Z,13.20
2018-07-02T04:15:43.687Z,13.20
2018-07-02T04:18:09.610Z,13.30
2018-07-02T04:20:35.528Z,13.40
2018-07-02T04:23:01.469Z,13.40
2018-07-02T04:25:27.407Z,13.40
2018-07-02T04:27:53.350Z,13.40
2018-07-02T04:30:20.015Z,13.50
2018-07-02T04:32:45.984Z,13.50
2018-07-02T04:35:11.910Z,13.60
2018-07-02T04:37:37.846Z,13.60
2018-07-02T04:40:03.777Z,13.70
2018-07-02T04:42:30.453Z,13.90
2018-07-02T04:44:56.401Z,13.90
2018-07-02T04:47:22.525Z,13.90
2018-07-02T04:49:48.319Z,14.00
2018-07-02T04:52:14.258Z,14.10
2018-07-02T04:54:40.216Z,14.10
2018-07-02T04:57:06.147Z,14.10
2018-07-02T04:59:32.095Z,14.20
2018-07-02T05:01:58.746Z,14.30
2018-07-02T05:04:25.640Z,14.40
2018-07-02T05:06:51.373Z,14.40
2018-07-02T05:09:17.285Z,14.50
2018-07-02T05:11:43.208Z,14.50
2018-07-02T05:14:09.106Z,14.60
2018-07-02T05:16:35.032Z,14.60
2018-07-02T05:19:00.965Z,14.70
2018-07-02T05:21:26.893Z,14.80
2018-07-02T05:23:53.535Z,14.90
2018-07-02T05:26:19.478Z,14.90
2018-07-02T05:28:46.119Z,15.00
2018-07-02T05:31:12.788Z,15.10
2018-07-02T05:33:38.714Z,15.00
2018-07-02T05:36:04.658Z,15.10
2018-07-02T05:38:30.564Z,15.20
2018-07-02T05:40:56.475Z,15.30
2018-07-02T05:43:22.403Z,15.40
2018-07-02T05:45:48.309Z,15.50
2018-07-02T05:48:14.229Z,15.60
2018-07-02T05:50:40.138Z,15.60
2018-07-02T05:53:06.820Z,15.70
2018-07-02T05:55:32.718Z,15.70
2018-07-02T05:57:58.647Z,15.80
2018-07-02T06:00:24.675Z,15.90
2018-07-02T06:02:50.501Z,15.90
2018-07-02T06:05:16.422Z,16.00
2018-07-02T06:07:42.331Z,16.10
2018-07-02T06:10:08.264Z,16.10
2018-07-02T06:12:34.160Z,16.20
2018-07-02T06:15:00.141Z,16.30
2018-07-02T06:17:26.030Z,16.30
2018-07-02T06:19:51.979Z,16.40
2018-07-02T06:22:17.886Z,16.50
2018-07-02T06:24:43.798Z,16.60
2018-07-02T06:27:09.742Z,16.70
2018-07-02T06:29:35.650Z,16.90
2018-07-02T06:32:01.587Z,17.00
2018-07-02T06:34:27.493Z,17.20
2018-07-02T06:36:53.431Z,17.30
2018-07-02T06:39:19.350Z,17.60
2018-07-02T06:41:45.270Z,18.80
2018-07-02T06:44:11.183Z,19.90
2018-07-02T06:46:37.115Z,20.90
2018-07-02T06:49:03.015Z,22.40
2018-07-02T06:51:28.912Z,22.90
2018-07-02T06:53:54.825Z,23.60
2018-07-02T06:56:20.726Z,24.00
2018-07-02T06:58:47.453Z,24.10
2018-07-02T07:01:13.324Z,24.10
2018-07-02T07:03:39.269Z,24.70
2018-07-02T07:06:05.175Z,25.00
2018-07-02T07:08:31.150Z,25.30
2018-07-02T07:10:57.078Z,25.80
2018-07-02T07:13:23.723Z,25.70
2018-07-02T07:15:50.399Z,25.70
2018-07-02T07:18:16.317Z,25.70
2018-07-02T07:20:42.247Z,26.20
2018-07-02T07:23:08.144Z,26.70
2018-07-02T07:25:34.070Z,27.10
2018-07-02T07:27:59.976Z,26.60
2018-07-02T07:30:25.922Z,27.20
2018-07-02T07:32:51.830Z,26.60
2018-07-02T07:35:17.745Z,26.50
2018-07-02T07:37:43.679Z,27.20
2018-07-02T07:40:09.599Z,27.80
2018-07-02T07:42:35.530Z,28.40
2018-07-02T07:45:01.445Z,28.70
2018-07-02T07:47:27.382Z,29.10
2018-07-02T07:49:53.292Z,29.20
2018-07-02T07:52:19.224Z,29.10
2018-07-02T07:54:45.123Z,27.70
2018-07-02T07:57:11.054Z,27.60
2018-07-02T07:59:36.960Z,28.00
2018-07-02T08:02:02.867Z,28.20
2018-07-02T08:04:28.814Z,29.00
2018-07-02T08:06:54.710Z,28.60
2018-07-02T08:09:21.366Z,29.30
2018-07-02T08:11:47.280Z,29.30
2018-07-02T08:14:13.191Z,29.50
2018-07-02T08:16:39.842Z,30.30
2018-07-02T08:19:05.818Z,30.20
2018-07-02T08:21:31.702Z,30.10
2018-07-02T08:23:57.627Z,29.90
2018-07-02T08:26:23.561Z,29.70
2018-07-02T08:28:49.477Z,29.90
2018-07-02T08:31:15.405Z,30.10
2018-07-02T08:33:41.312Z,30.00
2018-07-02T08:36:07.236Z,30.10
2018-07-02T08:38:33.146Z,30.00
2018-07-02T08:40:59.083Z,29.50
2018-07-02T08:43:25.006Z,29.70
2018-07-02T08:45:50.915Z,30.10
2018-07-02T08:48:16.852Z,30.70
2018-07-02T08:50:42.765Z,31.80
2018-07-02T08:53:08.685Z,31.60
2018-07-02T08:55:34.600Z,31.20
2018-07-02T08:58:00.519Z,31.20
2018-07-02T09:00:26.426Z,30.70
2018-07-02T09:02:52.363Z,31.10
2018-07-02T09:05:18.269Z,31.00
2018-07-02T09:07:44.916Z,29.90
2018-07-02T09:10:10.848Z,29.90
2018-07-02T09:12:36.754Z,30.20
2018-07-02T09:15:02.695Z,30.50
2018-07-02T09:17:28.606Z,29.70
2018-07-02T09:19:54.662Z,30.50
2018-07-02T09:22:20.568Z,30.90
2018-07-02T09:24:46.467Z,30.70
2018-07-02T09:27:12.400Z,30.90
2018-07-02T09:29:38.312Z,31.10
2018-07-02T09:32:04.255Z,31.30
2018-07-02T09:34:30.158Z,31.50
2018-07-02T09:36:56.100Z,31.40
2018-07-02T09:39:22.008Z,31.30
2018-07-02T09:41:48.740Z,30.70
2018-07-02T09:44:14.644Z,30.70
2018-07-02T09:46:41.296Z,31.40
2018-07-02T09:49:07.228Z,31.30
2018-07-02T09:51:33.141Z,31.20
2018-07-02T09:53:59.080Z,30.60
2018-07-02T09:56:24.994Z,30.80
2018-07-02T09:58:50.916Z,30.90
2018-07-02T10:01:16.834Z,30.40
2018-07-02T10:03:42.770Z,30.00
2018-07-02T10:06:08.755Z,29.80
2018-07-02T10:08:34.674Z,30.30
2018-07-02T10:11:01.334Z,29.20
2018-07-02T10:13:27.236Z,29.20
2018-07-02T10:15:53.891Z,27.70
2018-07-02T10:18:19.795Z,27.60
2018-07-02T10:20:46.464Z,27.10
2018-07-02T10:23:12.374Z,27.00
2018-07-02T10:25:38.316Z,26.60
2018-07-02T10:28:04.254Z,26.10
2018-07-02T10:30:30.182Z,26.40
2018-07-02T10:32:56.087Z,26.70
2018-07-02T10:35:22.043Z,26.30
2018-07-02T10:37:47.944Z,26.40
2018-07-02T10:40:13.848Z,26.60
2018-07-02T10:42:39.772Z,25.90
2018-07-02T10:45:05.681Z,26.00
2018-07-02T10:47:31.603Z,26.40
2018-07-02T10:49:57.502Z,26.40
2018-07-02T10:52:23.426Z,26.10
2018-07-02T10:54:49.347Z,26.40
2018-07-02T10:57:15.271Z,26.30
2018-07-02T10:59:41.176Z,26.40
2018-07-02T11:02:07.861Z,26.10
2018-07-02T11:04:33.802Z,26.10
2018-07-02T11:06:59.706Z,26.10
2018-07-02T11:09:25.635Z,25.60
2018-07-02T11:11:51.529Z,25.70
2018-07-02T11:14:17.445Z,25.90
2018-07-02T11:16:43.359Z,25.80
2018-07-02T11:19:09.290Z,25.90
2018-07-02T11:21:35.190Z,26.10
2018-07-02T11:24:01.848Z,26.20
2018-07-02T11:26:27.780Z,26.20
2018-07-02T11:28:53.694Z,26.00
2018-07-02T11:31:19.627Z,25.40
2018-07-02T11:33:45.542Z,25.80
2018-07-02T11:36:11.466Z,25.70
2018-07-02T11:38:37.392Z,25.60
2018-07-02T11:41:03.340Z,25.90
2018-07-02T11:43:29.274Z,25.90
2018-07-02T11:45:55.212Z,26.20
2018-07-02T11:48:21.859Z,26.00
2018-07-02T11:50:48.554Z,25.90
2018-07-02T11:53:14.459Z,25.90
2018-07-02T11:55:40.366Z,25.90
2018-07-02T11:58:06.291Z,25.80
2018-07-02T12:00:32.209Z,25.90
2018-07-02T12:02:58.141Z,25.60
2018-07-02T12:05:24.044Z,25.80
2018-07-02T12:07:49.989Z,25.80
2018-07-02T12:10:15.902Z,25.60
2018-07-02T12:12:41.824Z,25.40
2018-07-02T12:15:07.838Z,25.30
2018-07-02T12:17:33.776Z,25.50
2018-07-02T12:19:59.703Z,25.40
2018-07-02T12:22:25.648Z,25.40
2018-07-02T12:24:51.581Z,25.40
2018-07-02T12:27:17.522Z,25.30
2018-07-02T12:29:44.188Z,25.20
2018-07-02T12:32:10.124Z,25.10
2018-07-02T12:34:36.076Z,25.20
2018-07-02T12:37:01.987Z,24.90
2018-07-02T12:39:27.907Z,25.00
2018-07-02T12:41:53.863Z,25.00
2018-07-02T12:44:20.509Z,25.10
2018-07-02T12:46:47.213Z,25.00
2018-07-02T12:49:13.146Z,25.00
2018-07-02T12:51:39.055Z,25.00
2018-07-02T12:54:05.005Z,24.90
2018-07-02T12:56:31.672Z,24.90
2018-07-02T12:58:57.606Z,24.90
2018-07-02T13:01:23.512Z,24.80
2018-07-02T13:03:49.451Z,24.70
2018-07-02T13:06:15.356Z,24.70
2018-07-02T13:08:41.256Z,24.80
2018-07-02T13:11:07.921Z,24.60
2018-07-02T13:13:33.834Z,24.50
2018-07-02T13:15:59.754Z,24.40
2018-07-02T13:18:25.663Z,24.40
2018-07-02T13:20:52.327Z,24.40
2018-07-02T13:23:18.236Z,24.30
2018-07-02T13:25:44.175Z,24.50
2018-07-02T13:28:10.218Z,24.60
2018-07-02T13:30:35.993Z,24.70
2018-07-02T13:33:02.675Z,24.60
2018-07-02T13:35:28.583Z,24.60
2018-07-02T13:37:54.508Z,24.50
2018-07-02T13:40:20.406Z,24.50
2018-07-02T13:42:46.322Z,24.40
2018-07-02T13:45:12.256Z,24.50
2018-07-02T13:47:38.215Z,24.60
2018-07-02T13:50:04.126Z,24.70
2018-07-02T13:52:30.037Z,24.80
2018-07-02T13:54:55.966Z,24.80
2018-07-02T13:57:21.897Z,24.70
2018-07-02T13:59:47.842Z,24.90
2018-07-02T14:02:13.791Z,25.00
2018-07-02T14:04:39.745Z,24.90
2018-07-02T14:07:05.652Z,24.90
2018-07-02T14:09:31.591Z,24.80
2018-07-02T14:11:57.505Z,24.80
2018-07-02T14:14:23.477Z,24.80
2018-07-02T14:16:49.371Z,24.80
2018-07-02T14:19:15.293Z,24.80
2018-07-02T14:21:41.220Z,24.80
2018-07-02T14:26:39.722Z,24.80
2018-07-02T14:29:05.637Z,24.70
2018-07-02T14:31:31.566Z,24.80
2018-07-02T14:33:57.463Z,24.70
2018-07-02T14:36:23.393Z,24.80
2018-07-02T14:38:49.294Z,24.80
2018-07-02T14:41:15.215Z,24.70
2018-07-02T14:43:41.133Z,24.60
2018-07-02T14:46:07.042Z,24.60
2018-07-02T14:48:32.986Z,24.70
2018-07-02T14:50:58.943Z,24.60
2018-07-02T14:53:24.841Z,24.70
2018-07-02T14:55:50.753Z,24.70
2018-07-02T14:58:16.690Z,24.60
2018-07-02T15:00:42.596Z,24.60
2018-07-02T15:03:08.497Z,24.60
2018-07-02T15:05:34.413Z,24.50
2018-07-02T15:08:00.324Z,24.40
2018-07-02T15:10:26.994Z,24.40
2018-07-02T15:12:52.910Z,24.40
2018-07-02T15:15:18.850Z,24.50
2018-07-02T15:17:44.763Z,24.60
2018-07-02T15:20:10.679Z,24.60
2018-07-02T15:22:36.602Z,24.60
2018-07-02T15:25:02.511Z,24.60
2018-07-02T15:27:28.494Z,24.40
2018-07-02T15:29:54.402Z,24.40
2018-07-02T15:32:20.326Z,24.40
2018-07-02T15:34:46.224Z,24.30
2018-07-02T15:37:12.171Z,24.40
2018-07-02T15:39:38.082Z,24.40
2018-07-02T15:42:03.995Z,24.30
2018-07-02T15:44:29.910Z,24.10
2018-07-02T15:46:55.843Z,24.00
2018-07-02T15:49:21.792Z,24.10
2018-07-02T15:51:54.632Z,24.10
2018-07-02T15:54:20.568Z,24.10
2018-07-02T15:56:46.478Z,24.10
2018-07-02T15:59:12.412Z,24.10
2018-07-02T16:01:38.306Z,24.10
2018-07-02T16:04:04.220Z,24.10
2018-07-02T16:06:30.139Z,24.00
2018-07-02T16:08:56.059Z,24.00
2018-07-02T16:11:21.983Z,23.90
2018-07-02T16:13:47.882Z,23.80
2018-07-02T16:16:14.576Z,23.80
2018-07-02T16:18:41.290Z,23.80
2018-07-02T16:21:07.191Z,23.70
2018-07-02T16:23:33.838Z,23.70
2018-07-02T16:25:59.809Z,23.60
2018-07-02T16:28:25.731Z,23.60
2018-07-02T16:30:51.662Z,23.60
2018-07-02T16:33:17.592Z,23.50
2018-07-02T16:35:43.598Z,23.50
2018-07-02T16:38:09.476Z,23.50
2018-07-02T16:40:35.385Z,23.50
2018-07-02T16:43:02.020Z,23.40
2018-07-02T16:45:28.690Z,23.30
2018-07-02T16:47:54.600Z,23.30
2018-07-02T16:50:20.540Z,23.20
2018-07-02T16:52:46.458Z,23.10
2018-07-02T16:55:12.394Z,23.00
2018-07-02T16:57:38.301Z,23.00
2018-07-02T17:00:04.237Z,22.90
2018-07-02T17:02:30.224Z,22.90
2018-07-02T17:04:56.176Z,22.90
2018-07-02T17:07:22.126Z,22.90
2018-07-02T17:09:48.062Z,22.80
2018-07-02T17:12:14.739Z,22.70
2018-07-02T17:14:40.648Z,22.60
2018-07-02T17:17:06.634Z,22.60
2018-07-02T17:19:32.539Z,22.50
2018-07-02T17:21:58.442Z,22.50
2018-07-02T17:24:24.363Z,22.50
2018-07-02T17:26:50.334Z,22.50
2018-07-02T17:29:17.012Z,22.50
2018-07-02T17:31:42.935Z,22.50
2018-07-02T17:34:08.844Z,22.40
2018-07-02T17:36:34.766Z,22.40
2018-07-02T17:39:00.684Z,22.30
2018-07-02T17:41:26.610Z,22.30
2018-07-02T17:43:52.517Z,22.30
2018-07-02T17:46:19.187Z,22.20
2018-07-02T17:48:45.106Z,22.20
2018-07-02T17:51:11.056Z,22.10
2018-07-02T17:53:37.001Z,22.10
2018-07-02T17:56:02.887Z,22.00
2018-07-02T17:58:28.811Z,22.00
2018-07-02T18:00:54.786Z,21.90
2018-07-02T18:03:21.454Z,21.70
2018-07-02T18:05:47.380Z,21.70
2018-07-02T18:08:13.337Z,21.70
2018-07-02T18:10:39.284Z,21.70
2018-07-02T18:13:05.212Z,21.60
2018-07-02T18:15:31.128Z,21.50
2018-07-02T18:17:57.775Z,21.40
2018-07-02T18:20:23.701Z,21.40
2018-07-02T18:22:49.629Z,21.40
2018-07-02T18:25:15.601Z,21.30
2018-07-02T18:27:41.523Z,21.30
2018-07-02T18:30:07.558Z,21.10
2018-07-02T18:32:33.455Z,21.10
2018-07-02T18:34:59.375Z,21.00
2018-07-02T18:37:25.305Z,21.00
2018-07-02T18:39:51.210Z,21.00
2018-07-02T18:42:17.148Z,20.90
2018-07-02T18:44:43.047Z,20.80
2018-07-02T18:47:08.997Z,20.80
2018-07-02T18:49:34.909Z,20.70
2018-07-02T18:52:00.814Z,20.60
2018-07-02T18:54:26.737Z,20.50
2018-07-02T18:56:52.699Z,20.50
2018-07-02T18:59:19.589Z,20.40
2018-07-02T19:01:45.494Z,20.40
2018-07-02T19:04:11.438Z,20.20
2018-07-02T19:06:37.354Z,20.10
2018-07-02T19:09:03.287Z,20.10
2018-07-02T19:11:29.212Z,20.00
2018-07-02T19:13:55.128Z,19.90
2018-07-02T19:16:21.087Z,19.90
2018-07-02T19:18:46.987Z,19.70
2018-07-02T19:21:12.914Z,19.70
2018-07-02T19:23:38.826Z,19.60
2018-07-02T19:26:04.739Z,19.60
2018-07-02T19:28:30.767Z,19.50
2018-07-02T19:30:56.675Z,19.40
2018-07-02T19:33:22.589Z,19.30
2018-07-02T19:35:48.526Z,19.20
2018-07-02T19:38:14.442Z,19.20
2018-07-02T19:40:40.356Z,19.20
2018-07-02T19:43:06.292Z,19.00
2018-07-02T19:45:32.187Z,19.00
2018-07-02T19:47:58.123Z,18.90
2018-07-02T19:50:24.031Z,18.70
2018-07-02T19:52:49.991Z,18.70
2018-07-02T19:55:15.896Z,18.60
2018-07-02T19:57:41.845Z,18.50
2018-07-02T20:00:07.822Z,18.40
2018-07-02T20:02:33.739Z,18.40
2018-07-02T20:04:59.670Z,18.30
2018-07-02T20:07:25.582Z,18.20
2018-07-02T20:09:51.529Z,18.20
2018-07-02T20:12:17.437Z,18.10
2018-07-02T20:14:43.372Z,18.00
2018-07-02T20:17:09.271Z,17.90
2018-07-02T20:19:35.224Z,17.80
2018-07-02T20:22:01.130Z,17.70
2018-07-02T20:24:27.043Z,17.70
2018-07-02T20:26:52.962Z,17.60
2018-07-02T20:29:18.883Z,17.50
2018-07-02T20:31:44.836Z,17.50
2018-07-02T20:34:10.774Z,17.40
2018-07-02T20:36:37.505Z,17.30
2018-07-02T20:39:03.445Z,17.30
2018-07-02T20:41:30.134Z,17.20
2018-07-02T20:43:56.048Z,17.20
2018-07-02T20:46:22.001Z,17.10
2018-07-02T20:48:47.918Z,17.10
2018-07-02T20:51:13.856Z,17.00
2018-07-02T20:53:39.826Z,17.00
2018-07-02T20:56:05.744Z,16.80
2018-07-02T20:58:32.399Z,16.70
2018-07-02T21:00:58.332Z,16.70
2018-07-02T21:03:24.254Z,16.60
2018-07-02T21:05:50.153Z,16.60
2018-07-02T21:08:16.086Z,16.50
2018-07-02T21:10:42.010Z,16.50
2018-07-02T21:13:07.925Z,16.50
2018-07-02T21:15:33.866Z,16.40
2018-07-02T21:17:59.768Z,16.30
2018-07-02T21:20:25.686Z,16.30
2018-07-02T21:22:51.583Z,16.30
2018-07-02T21:25:18.259Z,16.10
2018-07-02T21:27:44.160Z,16.10
2018-07-02T21:30:10.099Z,16.10
2018-07-02T21:32:36.015Z,16.00
2018-07-02T21:35:01.938Z,16.00
2018-07-02T21:37:28.015Z,16.00
2018-07-02T21:39:53.989Z,15.90
2018-07-02T21:42:19.936Z,15.80
2018-07-02T21:44:45.914Z,15.80
2018-07-02T21:47:11.838Z,15.70
2018-07-02T21:49:37.826Z,15.70
2018-07-02T21:52:03.738Z,15.60
2018-07-02T21:54:29.663Z,15.70
2018-07-02T21:56:55.595Z,15.60
2018-07-02T21:59:21.550Z,15.60
2018-07-02T22:01:47.518Z,15.50
2018-07-02T22:04:13.463Z,15.60
2018-07-02T22:06:39.389Z,15.40
2018-07-02T22:09:05.365Z,15.40
2018-07-02T22:11:31.321Z,15.30
2018-07-02T22:13:58.013Z,15.30
2018-07-02T22:16:23.990Z,15.30
2018-07-02T22:18:50.682Z,15.10
2018-07-02T22:21:16.663Z,15.10
2018-07-02T22:23:42.589Z,15.10
2018-07-02T22:26:09.264Z,15.00
2018-07-02T22:28:35.242Z,14.90
2018-07-02T22:31:01.212Z,15.00
2018-07-02T22:33:27.197Z,14.90
2018-07-02T22:35:53.109Z,14.90
2018-07-02T22:38:19.040Z,14.80
2018-07-02T22:40:44.950Z,14.80
2018-07-02T22:43:10.880Z,14.80
2018-07-02T22:45:36.787Z,14.80
2018-07-02T22:48:02.740Z,14.80
2018-07-02T22:50:29.395Z,14.80
2018-07-02T22:52:55.306Z,14.70
2018-07-02T22:55:21.226Z,14.80
2018-07-02T22:57:47.874Z,14.80
2018-07-02T23:00:13.812Z,14.80
2018-07-02T23:02:39.717Z,14.80
2018-07-02T23:05:05.650Z,14.70
2018-07-02T23:07:31.563Z,14.70
2018-07-02T23:09:57.486Z,14.60
2018-07-02T23:12:23.475Z,14.50
2018-07-02T23:14:50.146Z,14.50
2018-07-02T23:17:16.075Z,14.40
2018-07-02T23:19:41.977Z,14.50
2018-07-02T23:22:08.646Z,14.50
2018-07-02T23:24:34.564Z,14.50
2018-07-02T23:27:00.511Z,14.50
2018-07-02T23:29:26.436Z,14.50
2018-07-02T23:31:53.070Z,14.50
2018-07-02T23:34:19.003Z,14.40
2018-07-02T23:36:44.929Z,14.40
2018-07-02T23:39:10.872Z,14.30
2018-07-02T23:41:37.518Z,14.30
2018-07-02T23:44:04.183Z,14.30
2018-07-02T23:46:30.081Z,14.30
2018-07-02T23:48:56.769Z,14.30
2018-07-02T23:51:22.674Z,14.30
2018-07-02T23:53:48.573Z,14.30
2018-07-02T23:56:14.530Z,14.20
2018-07-02T23:58:40.435Z,14.10
